Time;durP1;ratioP1;P1;durP2;ratioP2;P2;SDS_P1;SDS_P2;PMS_P1;PMS_P2;Temp;Humidity;BMP_temperature;BMP_pressure;BME280_temperature;BME280_humidity;BME280_pressure;Samples;Min_cycle;Max_cycle;Signal;HPM_P1;HPM_P2
2021/12/16 00:08:58;;;;;;;17.63;13.40;;;;;;;;;;5052460;28;20434;-54
2021/12/16 00:30:35;;;;;;;21.33;14.97;;;;;;;;;;5051859;28;20410;-53
2021/12/16 00:35:25;;;;;;;21.30;14.97;;;;;;;;;;5051450;28;20423;-55
2021/12/16 00:37:51;;;;;;;26.27;16.10;;;;;;;;;;5052414;28;20892;-58
2021/12/16 00:40:17;;;;;;;25.80;16.30;;;;;;;;;;5052356;28;20408;-55
2021/12/16 00:42:51;;;;;;;26.30;15.73;;;;;;;;;;5052333;28;20423;-56
2021/12/16 00:48:00;;;;;;;27.90;17.40;;;;;;;;;;5053233;28;20423;-54
2021/12/16 00:55:53;;;;;;;22.93;15.60;;;;;;;;;;5056404;28;20456;-53
2021/12/16 00:58:24;;;;;;;23.93;15.40;;;;;;;;;;5056252;28;20549;-61
2021/12/16 01:00:59;;;;;;;23.07;14.73;;;;;;;;;;5055977;28;20407;-58
2021/12/16 01:06:12;;;;;;;24.07;15.90;;;;;;;;;;5056045;28;20473;-67
2021/12/16 01:36:19;;;;;;;26.03;15.77;;;;;;;;;;5054734;28;20803;-52
2021/12/16 01:49:50;;;;;;;29.50;18.33;;;;;;;;;;5055114;28;20450;-52
2021/12/16 01:55:15;;;;;;;29.17;17.50;;;;;;;;;;5054121;28;20403;-51
2021/12/16 01:57:46;;;;;;;27.37;15.70;;;;;;;;;;5055164;28;20408;-54
2021/12/16 02:00:24;;;;;;;34.43;20.37;;;;;;;;;;5053495;28;20411;-52
2021/12/16 02:02:51;;;;;;;28.60;16.50;;;;;;;;;;5054700;28;20787;-52
2021/12/16 02:05:29;;;;;;;27.93;17.20;;;;;;;;;;5054945;28;20404;-52
2021/12/16 02:10:35;;;;;;;27.13;18.80;;;;;;;;;;5054773;28;20942;-51
2021/12/16 02:13:33;;;;;;;31.07;18.80;;;;;;;;;;5054688;28;20459;-54
2021/12/16 02:32:43;;;;;;;35.10;19.90;;;;;;;;;;5054137;28;20930;-51
2021/12/16 02:35:29;;;;;;;36.53;20.83;;;;;;;;;;5054559;28;20407;-53
2021/12/16 02:37:58;;;;;;;37.57;20.10;;;;;;;;;;5053951;28;20420;-53
2021/12/16 02:40:24;;;;;;;36.67;20.93;;;;;;;;;;5054010;28;20404;-56
2021/12/16 02:42:56;;;;;;;38.23;21.70;;;;;;;;;;5053996;28;20419;-55
2021/12/16 02:48:39;;;;;;;38.80;21.43;;;;;;;;;;4992404;28;20402;-57
2021/12/16 02:51:10;;;;;;;37.57;21.20;;;;;;;;;;4992442;28;20417;-57
2021/12/16 02:53:38;;;;;;;38.50;20.53;;;;;;;;;;5028182;28;20566;-52
2021/12/16 02:56:04;;;;;;;37.80;20.93;;;;;;;;;;5053567;28;20422;-55
2021/12/16 02:58:31;;;;;;;33.90;20.70;;;;;;;;;;5053561;28;20419;-58
2021/12/16 03:01:05;;;;;;;35.20;20.30;;;;;;;;;;5053485;28;20443;-53
2021/12/16 03:03:31;;;;;;;32.33;20.10;;;;;;;;;;5053466;28;20938;-53
2021/12/16 03:05:59;;;;;;;33.17;19.37;;;;;;;;;;5053310;28;20416;-54
2021/12/16 03:08:26;;;;;;;35.00;20.40;;;;;;;;;;5053246;28;20506;-53
2021/12/16 03:11:05;;;;;;;41.43;22.37;;;;;;;;;;5052934;28;20419;-54
2021/12/16 03:13:37;;;;;;;36.13;20.27;;;;;;;;;;5053409;28;20509;-58
2021/12/16 03:16:17;;;;;;;34.00;20.87;;;;;;;;;;5053212;28;20434;-51
2021/12/16 03:21:19;;;;;;;35.17;19.93;;;;;;;;;;5052924;28;20451;-56
2021/12/16 03:37:14;;;;;;;38.40;21.43;;;;;;;;;;5053271;28;20966;-53
2021/12/16 03:39:41;;;;;;;35.40;21.20;;;;;;;;;;5053313;28;20408;-51
2021/12/16 03:42:07;;;;;;;34.70;21.40;;;;;;;;;;5052736;28;20411;-51
2021/12/16 03:44:56;;;;;;;33.70;20.93;;;;;;;;;;5052816;28;20411;-53
2021/12/16 03:47:25;;;;;;;36.23;19.73;;;;;;;;;;5053050;28;20438;-55
2021/12/16 03:49:51;;;;;;;33.97;20.50;;;;;;;;;;5052759;28;20888;-53
2021/12/16 03:52:18;;;;;;;36.40;21.77;;;;;;;;;;5052683;28;20549;-52
2021/12/16 03:54:49;;;;;;;33.63;20.33;;;;;;;;;;5052901;28;20776;-53
2021/12/16 03:57:16;;;;;;;36.10;21.13;;;;;;;;;;5052908;28;20502;-52
2021/12/16 03:59:42;;;;;;;37.40;20.90;;;;;;;;;;5052698;28;20416;-54
2021/12/16 04:02:13;;;;;;;39.20;21.53;;;;;;;;;;5052474;28;20403;-51
2021/12/16 04:04:40;;;;;;;47.23;21.70;;;;;;;;;;5052275;28;20416;-53
2021/12/16 04:07:07;;;;;;;45.43;22.07;;;;;;;;;;5052637;28;20461;-55
2021/12/16 04:09:34;;;;;;;39.77;21.30;;;;;;;;;;5052578;28;20426;-54
2021/12/16 04:12:09;;;;;;;39.60;21.17;;;;;;;;;;5052275;28;20978;-53
2021/12/16 04:14:36;;;;;;;35.00;19.97;;;;;;;;;;5051359;28;20506;-54
2021/12/16 04:17:03;;;;;;;37.17;22.70;;;;;;;;;;5052843;28;20408;-52
2021/12/16 04:19:30;;;;;;;38.40;21.60;;;;;;;;;;5052028;28;20420;-54
2021/12/16 04:21:58;;;;;;;37.10;21.60;;;;;;;;;;5052413;28;20439;-66
2021/12/16 04:24:25;;;;;;;37.17;21.57;;;;;;;;;;5055770;28;20809;-55
2021/12/16 04:26:52;;;;;;;38.30;21.77;;;;;;;;;;5056308;28;20403;-54
2021/12/16 04:29:19;;;;;;;37.90;20.60;;;;;;;;;;5056373;28;20495;-58
2021/12/16 04:31:45;;;;;;;36.83;21.60;;;;;;;;;;5056353;28;20943;-53
2021/12/16 04:34:13;;;;;;;34.60;21.20;;;;;;;;;;5056208;28;20416;-55
2021/12/16 04:36:39;;;;;;;38.50;21.67;;;;;;;;;;5056095;28;20408;-53
2021/12/16 04:39:08;;;;;;;38.27;21.73;;;;;;;;;;5056130;28;20817;-54
2021/12/16 04:41:34;;;;;;;38.20;21.47;;;;;;;;;;5056020;28;20427;-54
2021/12/16 04:44:02;;;;;;;36.20;21.90;;;;;;;;;;5056078;28;20411;-53
2021/12/16 04:46:30;;;;;;;38.60;22.20;;;;;;;;;;5056112;28;20422;-55
2021/12/16 04:48:57;;;;;;;34.90;21.50;;;;;;;;;;5056307;28;20588;-56
2021/12/16 04:51:25;;;;;;;40.63;22.23;;;;;;;;;;5056152;28;20450;-53
2021/12/16 04:53:51;;;;;;;36.07;20.97;;;;;;;;;;5055908;28;20427;-54
2021/12/16 04:56:18;;;;;;;34.53;20.07;;;;;;;;;;5055880;28;20764;-52
2021/12/16 04:58:46;;;;;;;36.10;21.20;;;;;;;;;;5054733;28;20462;-56
2021/12/16 05:01:13;;;;;;;41.73;21.63;;;;;;;;;;5056018;28;20407;-54
2021/12/16 05:03:39;;;;;;;35.43;21.20;;;;;;;;;;5055763;28;20407;-54
2021/12/16 05:06:05;;;;;;;34.47;20.30;;;;;;;;;;5055765;28;20833;-58
2021/12/16 05:08:32;;;;;;;36.50;20.20;;;;;;;;;;5055672;28;20407;-55
2021/12/16 05:11:01;;;;;;;39.80;20.90;;;;;;;;;;5055565;28;20412;-53
2021/12/16 05:13:28;;;;;;;36.60;19.93;;;;;;;;;;5055470;28;20474;-57
2021/12/16 05:15:55;;;;;;;35.40;20.60;;;;;;;;;;5055698;28;20963;-53
2021/12/16 05:18:26;;;;;;;36.07;20.53;;;;;;;;;;5055490;28;20469;-54
2021/12/16 05:20:54;;;;;;;33.90;19.97;;;;;;;;;;5055323;28;20455;-56
2021/12/16 05:28:39;;;;;;;36.80;20.73;;;;;;;;;;5055197;28;20780;-55
2021/12/16 05:31:05;;;;;;;34.10;19.90;;;;;;;;;;5055203;28;20404;-54
2021/12/16 05:33:31;;;;;;;36.17;19.57;;;;;;;;;;5054614;28;20566;-52
2021/12/16 05:35:58;;;;;;;33.27;19.20;;;;;;;;;;5055111;28;20431;-57
2021/12/16 05:38:25;;;;;;;33.13;18.17;;;;;;;;;;5055332;28;20419;-57
2021/12/16 05:40:51;;;;;;;37.47;20.17;;;;;;;;;;5055236;28;20443;-57
2021/12/16 05:43:18;;;;;;;30.13;18.53;;;;;;;;;;5054847;28;20511;-58
2021/12/16 05:45:45;;;;;;;38.03;20.67;;;;;;;;;;5055169;28;20408;-59
2021/12/16 05:48:13;;;;;;;40.63;19.57;;;;;;;;;;5055146;28;20412;-54
2021/12/16 05:50:41;;;;;;;33.63;19.47;;;;;;;;;;5054794;28;20438;-55
2021/12/16 05:53:07;;;;;;;32.90;19.40;;;;;;;;;;5054642;28;20832;-56
2021/12/16 05:55:33;;;;;;;32.33;18.27;;;;;;;;;;5054568;28;20415;-53
2021/12/16 05:58:02;;;;;;;37.23;19.33;;;;;;;;;;5054552;28;20415;-63
2021/12/16 06:00:30;;;;;;;33.83;18.27;;;;;;;;;;5054926;28;20408;-54
2021/12/16 06:02:56;;;;;;;39.80;19.87;;;;;;;;;;5054857;28;20787;-53
2021/12/16 06:05:22;;;;;;;31.47;19.60;;;;;;;;;;5054943;28;20502;-55
2021/12/16 06:07:49;;;;;;;36.73;19.83;;;;;;;;;;5054447;28;20426;-54
2021/12/16 06:13:06;;;;;;;33.00;19.77;;;;;;;;;;5025966;28;20545;-60
2021/12/16 06:22:19;;;;;;;35.93;19.60;;;;;;;;;;5054216;28;20893;-58
2021/12/16 06:27:06;;;;;;;38.73;20.30;;;;;;;;;;5054641;28;20439;-56
2021/12/16 06:29:31;;;;;;;34.70;19.60;;;;;;;;;;5054014;28;20420;-54
2021/12/16 06:31:57;;;;;;;37.30;19.80;;;;;;;;;;5054074;28;20570;-52
2021/12/16 06:34:24;;;;;;;38.70;20.87;;;;;;;;;;5054188;28;20408;-52
2021/12/16 06:36:50;;;;;;;38.47;20.27;;;;;;;;;;5053651;28;20419;-56
2021/12/16 06:39:17;;;;;;;40.80;21.03;;;;;;;;;;5053906;28;20414;-56
2021/12/16 06:41:43;;;;;;;39.00;21.17;;;;;;;;;;5053467;28;20553;-55
2021/12/16 06:44:20;;;;;;;35.00;19.80;;;;;;;;;;5053160;28;20400;-52
2021/12/16 06:46:47;;;;;;;41.27;21.70;;;;;;;;;;5052884;28;20509;-59
2021/12/16 06:49:16;;;;;;;42.97;22.30;;;;;;;;;;5053454;28;20411;-58
2021/12/16 06:54:23;;;;;;;35.80;21.37;;;;;;;;;;5053674;28;20433;-60
2021/12/16 06:57:17;;;;;;;39.93;21.87;;;;;;;;;;5052073;28;20784;-53
2021/12/16 06:59:53;;;;;;;40.00;20.97;;;;;;;;;;5053916;28;20407;-53
2021/12/16 07:02:40;;;;;;;45.90;21.60;;;;;;;;;;5053561;28;20427;-56
2021/12/16 07:05:06;;;;;;;37.83;20.80;;;;;;;;;;5053147;28;20441;-57
2021/12/16 07:07:32;;;;;;;42.23;21.50;;;;;;;;;;5053374;28;20443;-57
2021/12/16 07:09:58;;;;;;;37.20;21.30;;;;;;;;;;5053547;28;20444;-53
2021/12/16 07:12:35;;;;;;;41.10;21.63;;;;;;;;;;5053246;28;21014;-53
2021/12/16 07:15:01;;;;;;;38.07;19.57;;;;;;;;;;5052953;28;20530;-58
2021/12/16 07:17:27;;;;;;;34.70;19.57;;;;;;;;;;5056725;28;20403;-58
2021/12/16 07:19:53;;;;;;;48.00;20.53;;;;;;;;;;5064091;28;21007;-60
2021/12/16 07:22:19;;;;;;;36.13;19.87;;;;;;;;;;5052458;28;20516;-57
2021/12/16 07:24:45;;;;;;;40.03;19.87;;;;;;;;;;5065842;28;20409;-55
2021/12/16 07:27:12;;;;;;;40.93;20.30;;;;;;;;;;5055959;28;20416;-60
2021/12/16 07:29:38;;;;;;;34.83;19.13;;;;;;;;;;5050234;28;20442;-55
2021/12/16 07:32:04;;;;;;;42.70;21.40;;;;;;;;;;5052402;28;20496;-60
2021/12/16 07:34:30;;;;;;;40.83;19.50;;;;;;;;;;5050887;28;20423;-57
2021/12/16 07:36:56;;;;;;;44.57;22.63;;;;;;;;;;5050907;28;20959;-57
2021/12/16 07:39:30;;;;;;;41.50;20.30;;;;;;;;;;5050685;28;20900;-57
2021/12/16 07:41:59;;;;;;;36.37;20.77;;;;;;;;;;5050755;28;20414;-61
2021/12/16 07:44:25;;;;;;;42.60;21.40;;;;;;;;;;5050721;28;20446;-55
2021/12/16 07:46:56;;;;;;;35.87;18.63;;;;;;;;;;5050334;28;20415;-55
2021/12/16 07:49:24;;;;;;;46.63;21.13;;;;;;;;;;5051628;28;20411;-54
2021/12/16 07:51:50;;;;;;;47.30;21.40;;;;;;;;;;5050454;28;20514;-57
2021/12/16 07:54:17;;;;;;;45.57;22.53;;;;;;;;;;5050675;28;20904;-59
2021/12/16 07:56:44;;;;;;;46.30;22.70;;;;;;;;;;5049590;28;20412;-59
2021/12/16 07:59:10;;;;;;;48.43;23.83;;;;;;;;;;5050914;28;20416;-56
2021/12/16 08:01:36;;;;;;;30.87;16.07;;;;;;;;;;5050927;28;20399;-57
2021/12/16 08:04:03;;;;;;;46.97;23.00;;;;;;;;;;5050677;28;20446;-57
2021/12/16 08:06:29;;;;;;;43.93;22.87;;;;;;;;;;5050502;28;20427;-54
2021/12/16 08:08:57;;;;;;;48.00;22.93;;;;;;;;;;5050705;28;20804;-58
2021/12/16 08:11:24;;;;;;;46.07;24.60;;;;;;;;;;5050625;28;20829;-56
2021/12/16 08:13:50;;;;;;;51.23;22.93;;;;;;;;;;5050342;28;20478;-58
2021/12/16 08:16:17;;;;;;;55.07;25.47;;;;;;;;;;5050280;28;20718;-58
2021/12/16 08:18:43;;;;;;;45.17;22.37;;;;;;;;;;5050736;28;20502;-57
2021/12/16 08:21:09;;;;;;;53.20;24.23;;;;;;;;;;5050308;28;20483;-59
2021/12/16 08:23:35;;;;;;;51.53;22.87;;;;;;;;;;5050159;28;20790;-56
2021/12/16 08:26:02;;;;;;;40.80;21.20;;;;;;;;;;5050037;28;20511;-57
2021/12/16 08:28:29;;;;;;;50.00;21.53;;;;;;;;;;5050122;28;20461;-56
2021/12/16 08:30:55;;;;;;;49.03;24.60;;;;;;;;;;5050266;28;20415;-56
2021/12/16 08:33:21;;;;;;;50.00;24.03;;;;;;;;;;5049950;28;20554;-57
2021/12/16 08:35:49;;;;;;;53.87;23.73;;;;;;;;;;5049996;28;20423;-58
2021/12/16 08:38:17;;;;;;;54.63;25.50;;;;;;;;;;5050090;28;20416;-59
2021/12/16 08:40:44;;;;;;;42.70;20.67;;;;;;;;;;5050553;28;20408;-56
2021/12/16 08:43:10;;;;;;;44.63;21.03;;;;;;;;;;5050646;28;20422;-55
2021/12/16 08:45:37;;;;;;;46.30;22.13;;;;;;;;;;5050080;28;20404;-58
2021/12/16 08:48:04;;;;;;;48.33;22.27;;;;;;;;;;5049301;28;20407;-56
2021/12/16 08:50:31;;;;;;;53.27;23.00;;;;;;;;;;5048835;28;20415;-57
2021/12/16 08:52:59;;;;;;;53.23;23.97;;;;;;;;;;5049380;28;20475;-59
2021/12/16 08:55:25;;;;;;;41.23;21.97;;;;;;;;;;5049488;28;20466;-56
2021/12/16 08:57:53;;;;;;;49.57;23.57;;;;;;;;;;5049051;28;20450;-55
2021/12/16 09:00:22;;;;;;;42.50;21.27;;;;;;;;;;5048803;28;20477;-56
2021/12/16 09:02:48;;;;;;;46.37;23.80;;;;;;;;;;5048866;28;20472;-58
2021/12/16 09:05:14;;;;;;;45.20;23.23;;;;;;;;;;5047630;28;20462;-55
2021/12/16 09:07:45;;;;;;;52.10;23.40;;;;;;;;;;5048620;28;20766;-55
2021/12/16 09:10:12;;;;;;;44.93;21.53;;;;;;;;;;5051588;28;20426;-60
2021/12/16 09:12:51;;;;;;;49.13;22.07;;;;;;;;;;5052433;28;20463;-55
2021/12/16 09:15:18;;;;;;;47.40;21.70;;;;;;;;;;5052731;28;20457;-54
2021/12/16 09:17:44;;;;;;;48.63;23.77;;;;;;;;;;5052650;28;20417;-58
2021/12/16 09:20:11;;;;;;;39.57;20.10;;;;;;;;;;5052119;28;20439;-56
2021/12/16 09:22:38;;;;;;;36.83;19.17;;;;;;;;;;5052826;28;20408;-56
2021/12/16 09:25:04;;;;;;;45.13;23.00;;;;;;;;;;5056335;28;20408;-56
2021/12/16 09:27:30;;;;;;;46.10;23.50;;;;;;;;;;5052218;28;20458;-59
2021/12/16 09:29:57;;;;;;;46.77;21.67;;;;;;;;;;5052295;28;20416;-61
2021/12/16 09:32:26;;;;;;;45.40;22.97;;;;;;;;;;5052210;28;20478;-56
2021/12/16 09:34:53;;;;;;;43.40;20.63;;;;;;;;;;5052608;28;20808;-58
2021/12/16 09:37:19;;;;;;;53.40;23.27;;;;;;;;;;5052274;28;20434;-61
2021/12/16 09:39:45;;;;;;;44.63;20.73;;;;;;;;;;5052118;28;20422;-56
2021/12/16 09:42:11;;;;;;;59.57;26.00;;;;;;;;;;5053073;28;20396;-59
2021/12/16 09:44:38;;;;;;;58.17;25.87;;;;;;;;;;5051962;28;20415;-58
2021/12/16 09:47:05;;;;;;;58.33;24.73;;;;;;;;;;5051367;28;20892;-60
2021/12/16 09:49:31;;;;;;;62.93;25.00;;;;;;;;;;5050207;28;20420;-57
2021/12/16 09:51:59;;;;;;;58.87;25.30;;;;;;;;;;5051092;28;20508;-57
2021/12/16 09:54:27;;;;;;;59.17;24.97;;;;;;;;;;5051401;28;20885;-56
2021/12/16 09:56:54;;;;;;;61.07;22.93;;;;;;;;;;5051298;28;20882;-57
2021/12/16 09:59:21;;;;;;;57.43;24.70;;;;;;;;;;5051337;28;20416;-57
2021/12/16 10:01:48;;;;;;;59.57;25.43;;;;;;;;;;5051766;28;20404;-56
2021/12/16 10:04:19;;;;;;;56.63;23.77;;;;;;;;;;5051448;28;20419;-58
2021/12/16 10:06:46;;;;;;;44.53;19.37;;;;;;;;;;5051645;28;20411;-59
2021/12/16 10:09:12;;;;;;;57.57;24.80;;;;;;;;;;5051637;28;20419;-57
2021/12/16 10:11:39;;;;;;;55.83;24.10;;;;;;;;;;5052013;28;20461;-58
2021/12/16 10:19:23;;;;;;;44.93;19.20;;;;;;;;;;5051728;28;20461;-56
2021/12/16 10:21:50;;;;;;;60.13;23.87;;;;;;;;;;5050204;28;20419;-57
2021/12/16 10:24:24;;;;;;;62.50;23.90;;;;;;;;;;5051660;28;20423;-57
2021/12/16 10:27:11;;;;;;;53.13;22.07;;;;;;;;;;5051209;28;20411;-56
2021/12/16 10:29:45;;;;;;;50.80;23.53;;;;;;;;;;5051389;28;20442;-55
2021/12/16 10:32:31;;;;;;;60.80;22.07;;;;;;;;;;5051677;28;20545;-57
2021/12/16 10:34:59;;;;;;;55.70;23.30;;;;;;;;;;5051011;28;20451;-56
2021/12/16 10:37:33;;;;;;;53.10;24.20;;;;;;;;;;5050899;28;20900;-56
2021/12/16 10:40:18;;;;;;;54.70;23.53;;;;;;;;;;5048034;28;20478;-57
2021/12/16 10:42:47;;;;;;;59.00;25.00;;;;;;;;;;5050838;28;20404;-54
2021/12/16 10:45:31;;;;;;;56.83;23.23;;;;;;;;;;5050616;28;20415;-54
2021/12/16 10:48:16;;;;;;;52.90;22.80;;;;;;;;;;5050764;28;20408;-55
2021/12/16 10:50:47;;;;;;;49.87;23.17;;;;;;;;;;5050287;28;20438;-55
2021/12/16 10:53:14;;;;;;;42.53;19.03;;;;;;;;;;5050347;28;20470;-54
2021/12/16 10:55:56;;;;;;;46.33;22.33;;;;;;;;;;5050424;28;20457;-55
2021/12/16 10:58:42;;;;;;;60.57;23.63;;;;;;;;;;5050011;28;20419;-56
2021/12/16 11:01:28;;;;;;;58.60;23.43;;;;;;;;;;5049870;28;20408;-54
2021/12/16 11:03:54;;;;;;;50.17;23.03;;;;;;;;;;5049918;28;20503;-53
2021/12/16 11:06:35;;;;;;;48.20;19.87;;;;;;;;;;5049993;28;20396;-56
2021/12/16 11:09:20;;;;;;;47.17;22.30;;;;;;;;;;5049842;28;20418;-55
2021/12/16 11:11:46;;;;;;;56.30;24.27;;;;;;;;;;5049640;28;20954;-57
2021/12/16 11:14:12;;;;;;;53.67;24.90;;;;;;;;;;5048132;28;20428;-55
2021/12/16 11:16:38;;;;;;;55.47;23.53;;;;;;;;;;5049413;28;20502;-59
2021/12/16 11:19:05;;;;;;;57.87;24.70;;;;;;;;;;5049859;28;20408;-62
2021/12/16 11:21:40;;;;;;;54.40;22.57;;;;;;;;;;5049734;28;20486;-59
2021/12/16 11:24:22;;;;;;;51.50;23.10;;;;;;;;;;5052808;28;20856;-57
2021/12/16 11:26:48;;;;;;;54.07;25.00;;;;;;;;;;5049523;28;20411;-56
2021/12/16 11:29:15;;;;;;;63.67;25.73;;;;;;;;;;5048664;28;20510;-57
2021/12/16 11:31:41;;;;;;;59.67;25.40;;;;;;;;;;5049166;28;20469;-56
2021/12/16 11:34:10;;;;;;;58.07;24.20;;;;;;;;;;5049286;28;20419;-55
2021/12/16 11:36:41;;;;;;;55.97;21.13;;;;;;;;;;5049745;28;20526;-56
2021/12/16 11:39:09;;;;;;;57.00;24.57;;;;;;;;;;5049391;28;20403;-59
2021/12/16 11:41:35;;;;;;;61.40;24.80;;;;;;;;;;5049725;28;20404;-57
2021/12/16 11:44:17;;;;;;;50.00;19.90;;;;;;;;;;5047983;28;20447;-58
2021/12/16 11:46:49;;;;;;;62.33;24.00;;;;;;;;;;5049408;28;20407;-59
2021/12/16 11:49:21;;;;;;;52.00;24.03;;;;;;;;;;5049369;28;20418;-61
2021/12/16 11:51:51;;;;;;;53.03;22.10;;;;;;;;;;5049564;28;20482;-63
2021/12/16 11:54:43;;;;;;;55.70;25.00;;;;;;;;;;5049265;28;20415;-56
2021/12/16 11:57:19;;;;;;;53.60;24.20;;;;;;;;;;5047248;28;20415;-59
2021/12/16 11:59:44;;;;;;;56.13;24.20;;;;;;;;;;5049584;28;20411;-56
2021/12/16 12:02:40;;;;;;;53.43;23.67;;;;;;;;;;5049723;28;20946;-60
2021/12/16 12:05:18;;;;;;;51.73;23.13;;;;;;;;;;5040743;28;20431;-63
2021/12/16 12:07:45;;;;;;;54.77;24.30;;;;;;;;;;5049592;28;20549;-58
2021/12/16 12:10:11;;;;;;;45.90;20.80;;;;;;;;;;5049527;28;20753;-59
2021/12/16 12:12:46;;;;;;;56.00;23.03;;;;;;;;;;5049090;28;20518;-58
2021/12/16 12:15:13;;;;;;;58.10;24.30;;;;;;;;;;5049552;28;20506;-56
2021/12/16 12:17:43;;;;;;;57.87;24.70;;;;;;;;;;5049061;28;20402;-57
2021/12/16 12:20:10;;;;;;;55.23;24.53;;;;;;;;;;5048873;28;20467;-57
2021/12/16 12:22:36;;;;;;;60.20;26.10;;;;;;;;;;5048938;28;20419;-55
2021/12/16 12:25:02;;;;;;;57.53;24.70;;;;;;;;;;5048708;28;20419;-60
2021/12/16 12:27:28;;;;;;;52.80;25.33;;;;;;;;;;5048928;28;20469;-54
2021/12/16 12:29:54;;;;;;;56.67;24.70;;;;;;;;;;5048747;28;20423;-58
2021/12/16 12:32:20;;;;;;;50.63;22.10;;;;;;;;;;5049383;28;20463;-54
2021/12/16 12:34:48;;;;;;;57.10;25.27;;;;;;;;;;5048885;28;21095;-55
2021/12/16 12:37:15;;;;;;;61.30;24.20;;;;;;;;;;5048826;28;20407;-54
2021/12/16 12:39:43;;;;;;;55.77;24.33;;;;;;;;;;5048816;28;20411;-56
2021/12/16 12:42:11;;;;;;;54.63;24.87;;;;;;;;;;5048940;28;20525;-55
2021/12/16 12:44:37;;;;;;;48.00;23.50;;;;;;;;;;5050759;28;20412;-55
2021/12/16 12:47:05;;;;;;;58.97;25.50;;;;;;;;;;5052117;28;20492;-55
2021/12/16 12:49:31;;;;;;;53.37;24.77;;;;;;;;;;5052374;28;20406;-56
2021/12/16 12:52:17;;;;;;;48.87;22.50;;;;;;;;;;5051512;28;20426;-56
2021/12/16 12:54:46;;;;;;;48.07;22.10;;;;;;;;;;5052441;28;20901;-56
2021/12/16 12:57:18;;;;;;;51.00;23.30;;;;;;;;;;5052012;28;20916;-55
2021/12/16 12:59:44;;;;;;;54.60;23.87;;;;;;;;;;5052552;28;20420;-56
2021/12/16 13:02:19;;;;;;;54.07;23.63;;;;;;;;;;5052934;28;20403;-54
2021/12/16 13:04:51;;;;;;;52.17;24.30;;;;;;;;;;5052744;28;20407;-57
2021/12/16 13:07:17;;;;;;;57.07;22.10;;;;;;;;;;5052751;28;20403;-55
2021/12/16 13:09:51;;;;;;;51.80;23.07;;;;;;;;;;5050610;28;20433;-57
2021/12/16 13:12:38;;;;;;;48.57;23.53;;;;;;;;;;5051959;28;20465;-58
2021/12/16 13:15:43;;;;;;;60.67;24.20;;;;;;;;;;5052156;28;20411;-58
2021/12/16 13:24:02;;;;;;;57.00;22.87;;;;;;;;;;5052260;28;20454;-57
2021/12/16 13:26:41;;;;;;;48.83;21.80;;;;;;;;;;5052394;28;20400;-56
2021/12/16 13:29:14;;;;;;;46.60;22.03;;;;;;;;;;5048156;28;20434;-58
2021/12/16 13:32:47;;;;;;;52.47;22.40;;;;;;;;;;5052457;28;20414;-56
2021/12/16 13:34:48;;;;;;;49.53;23.10;;;;;;;;;;5042555;28;20436;-58
2021/12/16 13:37:22;;;;;;;45.37;21.20;;;;;;;;;;5052067;28;20490;-58
2021/12/16 13:39:49;;;;;;;42.50;21.00;;;;;;;;;;5051615;28;20447;-53
2021/12/16 13:42:15;;;;;;;46.57;20.43;;;;;;;;;;5051441;28;20446;-56
2021/12/16 13:44:47;;;;;;;43.00;20.10;;;;;;;;;;5051501;28;20484;-55
2021/12/16 13:47:28;;;;;;;50.20;21.53;;;;;;;;;;5051451;28;20427;-51
2021/12/16 14:01:50;;;;;;;38.93;18.83;;;;;;;;;;5052023;28;20426;-56
2021/12/16 14:04:57;;;;;;;39.00;17.60;;;;;;;;;;5050968;28;20423;-56
2021/12/16 14:07:52;;;;;;;37.90;17.20;;;;;;;;;;5050854;28;20400;-54
2021/12/16 14:10:22;;;;;;;36.43;19.13;;;;;;;;;;5051536;28;20412;-53
2021/12/16 14:16:02;;;;;;;37.43;19.23;;;;;;;;;;5050681;28;20406;-57
2021/12/16 14:24:53;;;;;;;31.40;17.13;;;;;;;;;;5051096;28;20933;-55
2021/12/16 14:42:03;;;;;;;42.70;21.63;;;;;;;;;;5050999;28;20419;-56
2021/12/16 14:44:18;;;;;;;42.73;19.57;;;;;;;;;;5041543;28;20420;-56
2021/12/16 14:47:01;;;;;;;40.20;19.80;;;;;;;;;;5050290;28;20469;-57
2021/12/16 14:49:28;;;;;;;37.70;19.20;;;;;;;;;;5050646;28;20776;-56
2021/12/16 14:51:57;;;;;;;36.20;19.53;;;;;;;;;;5048509;28;20469;-56
2021/12/16 14:54:23;;;;;;;35.90;18.63;;;;;;;;;;5050631;28;20427;-56
2021/12/16 14:56:49;;;;;;;36.67;19.60;;;;;;;;;;5049461;28;20457;-56
2021/12/16 14:59:18;;;;;;;37.57;18.93;;;;;;;;;;5049879;28;20908;-56
2021/12/16 15:01:47;;;;;;;39.33;19.27;;;;;;;;;;5050540;28;20722;-56
2021/12/16 15:04:16;;;;;;;38.37;20.03;;;;;;;;;;5049950;28;20470;-54
2021/12/16 15:06:52;;;;;;;41.77;20.23;;;;;;;;;;5049215;28;20423;-55
2021/12/16 15:09:28;;;;;;;36.90;19.00;;;;;;;;;;5049676;28;20705;-62
2021/12/16 15:14:54;;;;;;;41.80;20.57;;;;;;;;;;5049428;28;20419;-56
2021/12/16 15:36:53;;;;;;;37.10;18.43;;;;;;;;;;5048862;28;20403;-56
2021/12/16 15:39:40;;;;;;;30.20;17.57;;;;;;;;;;5049236;28;20490;-57
2021/12/16 15:44:52;;;;;;;29.80;16.30;;;;;;;;;;5048227;28;20510;-55
2021/12/16 15:47:18;;;;;;;25.73;16.43;;;;;;;;;;5048657;28;20506;-57
2021/12/16 15:49:44;;;;;;;27.10;15.10;;;;;;;;;;5048902;28;20429;-56
2021/12/16 15:52:11;;;;;;;27.43;15.20;;;;;;;;;;5048533;28;20507;-57
2021/12/16 15:54:38;;;;;;;26.03;15.40;;;;;;;;;;5047845;28;20467;-59
2021/12/16 15:57:05;;;;;;;26.63;15.83;;;;;;;;;;5048422;28;20983;-57
2021/12/16 15:59:31;;;;;;;29.37;14.50;;;;;;;;;;5048496;28;20423;-59
2021/12/16 16:01:59;;;;;;;25.93;15.60;;;;;;;;;;5048677;28;20423;-57
2021/12/16 16:04:27;;;;;;;27.80;15.70;;;;;;;;;;5048268;28;20427;-56
2021/12/16 16:06:57;;;;;;;30.33;16.37;;;;;;;;;;5048521;28;20416;-56
2021/12/16 16:09:23;;;;;;;21.50;13.90;;;;;;;;;;5048355;28;20473;-57
2021/12/16 16:11:52;;;;;;;22.43;13.80;;;;;;;;;;5048505;28;20501;-61
2021/12/16 16:14:19;;;;;;;22.20;14.30;;;;;;;;;;5048977;28;20750;-57
2021/12/16 16:16:49;;;;;;;23.97;14.40;;;;;;;;;;5048461;28;20411;-58
2021/12/16 16:19:19;;;;;;;21.70;14.30;;;;;;;;;;5049541;28;20811;-62
2021/12/16 16:21:47;;;;;;;22.30;15.13;;;;;;;;;;5052800;28;20439;-57
2021/12/16 16:24:17;;;;;;;26.10;15.70;;;;;;;;;;5052119;28;20804;-57
2021/12/16 16:26:49;;;;;;;20.03;13.37;;;;;;;;;;5052523;28;20856;-58
2021/12/16 16:29:16;;;;;;;18.60;12.20;;;;;;;;;;5052547;28;20403;-56
2021/12/16 16:31:43;;;;;;;31.43;13.70;;;;;;;;;;5052351;28;20403;-57
2021/12/16 16:34:13;;;;;;;18.17;12.93;;;;;;;;;;5052014;28;20583;-57
2021/12/16 16:36:44;;;;;;;18.07;12.23;;;;;;;;;;5052388;28;20415;-55
2021/12/16 16:39:12;;;;;;;19.23;11.40;;;;;;;;;;5052420;28;20410;-56
2021/12/16 16:41:39;;;;;;;17.00;11.23;;;;;;;;;;5051634;28;20918;-57
2021/12/16 16:44:12;;;;;;;14.67;10.70;;;;;;;;;;5051632;28;20420;-57
2021/12/16 16:46:45;;;;;;;15.37;10.90;;;;;;;;;;5052103;28;20923;-61
2021/12/16 16:49:15;;;;;;;16.60;10.70;;;;;;;;;;5051944;28;20410;-59
2021/12/16 16:51:43;;;;;;;16.27;10.50;;;;;;;;;;5052630;28;20407;-57
2021/12/16 16:54:12;;;;;;;13.20;10.40;;;;;;;;;;5052083;28;20936;-57
2021/12/16 16:56:38;;;;;;;13.67;10.10;;;;;;;;;;5051721;28;20803;-56
2021/12/16 16:59:06;;;;;;;14.40;10.00;;;;;;;;;;5051738;28;20530;-55
2021/12/16 17:01:33;;;;;;;14.57;10.77;;;;;;;;;;5052324;28;20188;-59
2021/12/16 17:04:06;;;;;;;14.50;10.23;;;;;;;;;;5051891;28;20403;-59
2021/12/16 17:06:33;;;;;;;17.87;10.50;;;;;;;;;;5051552;28;20878;-57
2021/12/16 17:09:00;;;;;;;14.30;10.20;;;;;;;;;;5051646;28;20808;-55
2021/12/16 17:11:27;;;;;;;16.03;10.43;;;;;;;;;;5051745;28;20442;-57
2021/12/16 17:14:07;;;;;;;15.60;10.87;;;;;;;;;;5052289;28;20471;-57
2021/12/16 17:19:20;;;;;;;17.00;11.37;;;;;;;;;;5051278;28;20481;-59
2021/12/16 17:21:49;;;;;;;18.40;11.87;;;;;;;;;;5051706;28;20888;-56
2021/12/16 17:24:17;;;;;;;16.03;10.60;;;;;;;;;;5051493;28;20444;-56
2021/12/16 17:26:47;;;;;;;20.60;11.93;;;;;;;;;;5051277;28;20736;-55
2021/12/16 17:29:18;;;;;;;18.23;12.23;;;;;;;;;;5051060;28;20411;-55
2021/12/16 17:31:49;;;;;;;16.03;11.37;;;;;;;;;;5051192;28;20490;-58
2021/12/16 17:34:21;;;;;;;16.37;10.70;;;;;;;;;;5050995;28;20474;-58
2021/12/16 17:36:53;;;;;;;16.80;10.90;;;;;;;;;;5051220;28;20499;-55
2021/12/16 17:39:20;;;;;;;20.70;11.70;;;;;;;;;;5051230;28;20415;-58
2021/12/16 17:41:53;;;;;;;15.23;11.87;;;;;;;;;;5051500;28;20705;-58
2021/12/16 17:44:20;;;;;;;22.37;11.83;;;;;;;;;;5051368;28;20430;-58
2021/12/16 17:46:50;;;;;;;17.80;12.20;;;;;;;;;;5050893;28;20412;-53
2021/12/16 17:49:17;;;;;;;19.27;12.47;;;;;;;;;;5051422;28;20527;-53
2021/12/16 17:51:43;;;;;;;18.20;12.73;;;;;;;;;;5051214;28;20412;-53
2021/12/16 17:54:10;;;;;;;23.53;12.50;;;;;;;;;;5051717;28;20467;-55
2021/12/16 17:56:36;;;;;;;19.40;12.50;;;;;;;;;;5051523;28;20505;-55
2021/12/16 17:59:04;;;;;;;18.90;12.67;;;;;;;;;;5051115;28;20412;-57
2021/12/16 18:01:32;;;;;;;18.10;12.40;;;;;;;;;;5051374;28;20492;-53
2021/12/16 18:04:04;;;;;;;17.83;12.30;;;;;;;;;;5051494;28;20734;-53
2021/12/16 18:06:36;;;;;;;21.10;13.67;;;;;;;;;;5050825;28;20403;-56